Time;durP1;ratioP1;P1;durP2;ratioP2;P2;SDS_P1;SDS_P2;PMS_P1;PMS_P2;Temp;Humidity;BMP_temperature;BMP_pressure;BME280_temperature;BME280_humidity;BME280_pressure;Samples;Min_cycle;Max_cycle;Signal;HPM_P1;HPM_P2
2022/08/13 00:00:31;;;;;;;;;;;23.50;99.90;;;;;;5074065;28;20382;-76
2022/08/13 00:02:57;;;;;;;;;;;23.50;99.90;;;;;;5073896;28;19943;-75
2022/08/13 00:05:24;;;;;;;;;;;23.30;99.90;;;;;;5073571;28;19947;-75
2022/08/13 00:07:50;;;;;;;;;;;23.20;99.90;;;;;;5073977;28;19908;-75
2022/08/13 00:10:23;;;;;;;;;;;23.30;99.90;;;;;;5073606;28;19909;-74
2022/08/13 00:12:58;;;;;;;;;;;23.30;99.90;;;;;;5073674;28;20139;-74
2022/08/13 00:15:27;;;;;;;;;;;23.10;99.90;;;;;;5073471;28;20015;-76
2022/08/13 00:17:54;;;;;;;;;;;23.00;99.90;;;;;;5055399;28;19955;-76
2022/08/13 00:20:22;;;;;;;;;;;23.20;99.90;;;;;;5073568;28;19908;-75
2022/08/13 00:22:48;;;;;;;;;;;23.30;99.90;;;;;;5073208;28;19916;-76
2022/08/13 00:25:14;;;;;;;;;;;23.30;99.90;;;;;;5055462;28;19908;-75
2022/08/13 00:27:47;;;;;;;;;;;23.30;99.90;;;;;;5073163;28;19924;-75
2022/08/13 00:30:16;;;;;;;;;;;23.30;99.90;;;;;;5088815;28;19932;-75
2022/08/13 00:32:44;;;;;;;;;;;23.40;99.90;;;;;;5073385;28;19931;-76
2022/08/13 00:35:11;;;;;;;;;;;23.40;99.90;;;;;;5073218;28;19948;-75
2022/08/13 00:37:37;;;;;;;;;;;23.50;99.90;;;;;;5055107;28;19999;-75
2022/08/13 00:40:05;;;;;;;;;;;23.40;99.90;;;;;;5073570;28;19985;-75
2022/08/13 00:42:31;;;;;;;;;;;23.40;99.90;;;;;;5073367;28;20294;-75
2022/08/13 00:44:58;;;;;;;;;;;23.40;99.90;;;;;;5073167;28;19999;-75
2022/08/13 00:50:13;;;;;;;;;;;23.50;99.90;;;;;;5073099;28;19919;-75
2022/08/13 00:52:40;;;;;;;;;;;23.40;99.90;;;;;;5071598;28;19925;-75
2022/08/13 00:55:17;;;;;;;;;;;23.40;99.90;;;;;;5088053;28;20011;-75
2022/08/13 00:57:46;;;;;;;;;;;23.50;99.90;;;;;;5072686;28;19915;-76
2022/08/13 01:00:17;;;;;;;;;;;23.40;99.90;;;;;;5088268;28;19919;-75
2022/08/13 01:02:44;;;;;;;;;;;23.20;99.90;;;;;;5072927;28;19920;-75
2022/08/13 01:05:09;;;;;;;;;;;23.20;99.90;;;;;;5072519;28;19948;-76
2022/08/13 01:07:37;;;;;;;;;;;23.20;99.90;;;;;;5072793;28;19955;-76
2022/08/13 01:10:03;;;;;;;;;;;23.30;99.90;;;;;;5071919;28;19916;-75
2022/08/13 01:12:29;;;;;;;;;;;23.20;99.90;;;;;;5072460;28;19908;-75
2022/08/13 01:14:56;;;;;;;;;;;23.20;99.90;;;;;;5072095;28;19967;-76
2022/08/13 01:17:23;;;;;;;;;;;23.00;99.90;;;;;;5072288;28;19988;-75
2022/08/13 01:19:52;;;;;;;;;;;23.00;99.90;;;;;;5072560;28;19908;-75
2022/08/13 01:22:17;;;;;;;;;;;22.90;99.90;;;;;;5087989;28;20253;-75
2022/08/13 01:24:43;;;;;;;;;;;22.90;99.90;;;;;;5072024;28;20004;-76
2022/08/13 01:27:10;;;;;;;;;;;22.70;99.90;;;;;;5072054;28;20003;-74
2022/08/13 01:29:36;;;;;;;;;;;22.70;99.90;;;;;;5072113;28;19919;-74
2022/08/13 01:32:02;;;;;;;;;;;22.50;99.90;;;;;;5072136;28;19908;-74
2022/08/13 01:34:31;;;;;;;;;;;22.40;99.90;;;;;;5072028;28;19999;-75
2022/08/13 01:36:57;;;;;;;;;;;22.30;99.90;;;;;;5054028;28;19962;-75
2022/08/13 01:39:23;;;;;;;;;;;22.40;99.90;;;;;;5055019;28;19913;-77
2022/08/13 01:41:49;;;;;;;;;;;22.30;99.90;;;;;;5074100;28;19909;-74
2022/08/13 01:44:15;;;;;;;;;;;22.40;99.90;;;;;;5072746;28;19912;-75
2022/08/13 01:52:10;;;;;;;;;;;22.20;99.90;;;;;;5088902;28;19919;-76
2022/08/13 01:54:37;;;;;;;;;;;22.30;99.90;;;;;;5085252;28;19997;-75
2022/08/13 01:57:03;;;;;;;;;;;22.30;99.90;;;;;;5084514;28;19954;-75
2022/08/13 01:59:29;;;;;;;;;;;22.40;99.90;;;;;;5083876;28;19935;-75
2022/08/13 02:01:57;;;;;;;;;;;22.40;99.90;;;;;;5071856;28;19927;-75
2022/08/13 02:04:23;;;;;;;;;;;22.50;99.90;;;;;;5071495;28;20376;-76
2022/08/13 02:06:49;;;;;;;;;;;22.60;99.90;;;;;;5071558;28;19916;-76
2022/08/13 02:09:14;;;;;;;;;;;22.60;99.90;;;;;;5079709;28;19923;-75
2022/08/13 02:11:41;;;;;;;;;;;22.60;99.90;;;;;;5092109;28;20274;-75
2022/08/13 02:14:08;;;;;;;;;;;22.70;99.90;;;;;;5092189;28;19916;-75
2022/08/13 02:16:36;;;;;;;;;;;22.70;99.90;;;;;;5091973;28;19912;-76
2022/08/13 02:19:03;;;;;;;;;;;22.80;99.90;;;;;;5092393;28;19955;-76
2022/08/13 02:21:33;;;;;;;;;;;22.70;99.90;;;;;;5090690;28;20083;-75
2022/08/13 02:23:59;;;;;;;;;;;22.60;99.90;;;;;;5091629;28;19912;-75
2022/08/13 02:26:27;;;;;;;;;;;22.40;99.90;;;;;;5092198;28;20349;-75
2022/08/13 02:28:54;;;;;;;;;;;22.30;99.90;;;;;;5091642;28;19908;-75
2022/08/13 02:31:21;;;;;;;;;;;22.50;99.90;;;;;;5112414;28;19908;-74
2022/08/13 02:33:46;;;;;;;;;;;22.60;99.90;;;;;;5112200;28;19979;-75
2022/08/13 02:36:12;;;;;;;;;;;22.70;99.90;;;;;;5111517;28;19919;-74
2022/08/13 02:38:38;;;;;;;;;;;22.80;99.90;;;;;;5110462;28;19908;-74
2022/08/13 02:43:50;;;;;;;;;;;22.70;99.90;;;;;;5094835;28;20300;-76
2022/08/13 02:46:16;;;;;;;;;;;22.70;99.90;;;;;;5092238;28;19908;-74
2022/08/13 02:48:42;;;;;;;;;;;22.60;99.90;;;;;;5092038;28;19908;-74
2022/08/13 02:51:11;;;;;;;;;;;22.50;99.90;;;;;;5091142;28;19908;-74
2022/08/13 02:53:37;;;;;;;;;;;22.50;99.90;;;;;;5091056;28;20108;-75
2022/08/13 02:56:06;;;;;;;;;;;22.60;99.90;;;;;;5090874;28;20345;-75
2022/08/13 02:58:31;;;;;;;;;;;22.70;99.90;;;;;;5091021;28;19939;-75
2022/08/13 03:00:58;;;;;;;;;;;22.90;99.90;;;;;;5091240;28;19908;-75
2022/08/13 03:03:26;;;;;;;;;;;22.90;99.90;;;;;;5090821;28;19927;-75
2022/08/13 03:05:52;;;;;;;;;;;22.90;99.90;;;;;;5090778;28;19909;-74
2022/08/13 03:08:18;;;;;;;;;;;22.80;99.90;;;;;;5090910;28;20479;-75
2022/08/13 03:10:44;;;;;;;;;;;22.80;99.90;;;;;;5090816;28;19920;-75
2022/08/13 03:13:15;;;;;;;;;;;22.70;99.90;;;;;;5090709;28;19908;-75
2022/08/13 03:15:41;;;;;;;;;;;22.70;99.90;;;;;;5090545;28;19912;-75
2022/08/13 03:18:09;;;;;;;;;;;22.90;99.90;;;;;;5090677;28;20393;-74
2022/08/13 03:20:34;;;;;;;;;;;23.00;99.90;;;;;;5090783;28;19935;-75
2022/08/13 03:23:01;;;;;;;;;;;23.00;99.90;;;;;;5090522;28;20385;-75
2022/08/13 03:25:29;;;;;;;;;;;23.20;99.90;;;;;;5090603;28;19909;-74
2022/08/13 03:27:57;;;;;;;;;;;23.30;99.90;;;;;;5090911;28;19912;-75
2022/08/13 03:30:23;;;;;;;;;;;23.40;99.90;;;;;;5090929;28;20397;-75
2022/08/13 03:32:50;;;;;;;;;;;23.40;99.90;;;;;;5092133;28;19908;-75
2022/08/13 03:35:23;;;;;;;;;;;23.40;99.90;;;;;;5094569;28;20273;-75
2022/08/13 03:37:53;;;;;;;;;;;23.40;99.90;;;;;;5094362;28;20285;-75
2022/08/13 03:40:18;;;;;;;;;;;23.40;99.90;;;;;;5094529;28;20357;-76
2022/08/13 03:42:48;;;;;;;;;;;23.50;99.90;;;;;;5094499;28;19912;-76
2022/08/13 03:45:15;;;;;;;;;;;23.60;99.90;;;;;;5094178;28;19951;-76
2022/08/13 03:47:41;;;;;;;;;;;23.70;99.90;;;;;;5076188;28;20003;-75
2022/08/13 03:50:07;;;;;;;;;;;23.50;99.90;;;;;;5094513;28;20353;-75
2022/08/13 03:52:33;;;;;;;;;;;23.50;99.90;;;;;;5095017;28;19938;-75
2022/08/13 03:54:59;;;;;;;;;;;23.60;99.90;;;;;;5094837;28;20018;-76
2022/08/13 03:57:25;;;;;;;;;;;23.70;99.90;;;;;;5094440;28;19990;-75
2022/08/13 03:59:50;;;;;;;;;;;23.70;99.90;;;;;;5094551;28;19913;-75
2022/08/13 04:02:16;;;;;;;;;;;23.70;99.90;;;;;;5094028;28;19908;-75
2022/08/13 04:04:46;;;;;;;;;;;23.70;99.90;;;;;;5093876;28;19908;-75
2022/08/13 04:07:14;;;;;;;;;;;23.80;99.90;;;;;;5093965;28;20407;-75
2022/08/13 04:09:40;;;;;;;;;;;23.70;99.90;;;;;;5093901;28;20369;-75
2022/08/13 04:12:09;;;;;;;;;;;23.70;99.90;;;;;;5093733;28;19962;-75
2022/08/13 04:14:35;;;;;;;;;;;23.70;99.90;;;;;;5093681;28;19912;-75
2022/08/13 04:17:00;;;;;;;;;;;23.60;99.90;;;;;;5093696;28;20403;-75
2022/08/13 04:19:26;;;;;;;;;;;23.50;99.90;;;;;;5075174;28;19916;-76
2022/08/13 04:21:52;;;;;;;;;;;23.50;99.90;;;;;;5075279;28;19960;-76
2022/08/13 04:24:18;;;;;;;;;;;23.60;99.90;;;;;;5093381;28;20344;-75
2022/08/13 04:26:47;;;;;;;;;;;23.60;99.90;;;;;;5093474;28;19911;-75
2022/08/13 04:29:13;;;;;;;;;;;23.50;99.90;;;;;;5093708;28;19923;-75
2022/08/13 04:31:39;;;;;;;;;;;23.50;99.90;;;;;;5094018;28;20377;-76
2022/08/13 04:34:05;;;;;;;;;;;23.40;99.90;;;;;;5075245;28;19952;-75
2022/08/13 04:36:31;;;;;;;;;;;23.40;99.90;;;;;;5094109;28;19966;-76
2022/08/13 04:38:56;;;;;;;;;;;23.50;99.90;;;;;;5094034;28;20335;-75
2022/08/13 04:41:22;;;;;;;;;;;23.40;99.90;;;;;;5075713;28;19958;-76
2022/08/13 04:43:48;;;;;;;;;;;23.30;99.90;;;;;;5074536;28;19978;-75
2022/08/13 04:46:14;;;;;;;;;;;23.10;99.90;;;;;;5093020;28;19915;-75
2022/08/13 04:48:39;;;;;;;;;;;23.00;99.90;;;;;;5093473;28;20043;-75
2022/08/13 04:51:06;;;;;;;;;;;23.00;99.90;;;;;;5075590;28;19908;-75
2022/08/13 04:53:33;;;;;;;;;;;23.20;99.90;;;;;;5075705;28;20271;-76
2022/08/13 04:55:59;;;;;;;;;;;23.30;99.90;;;;;;5092983;28;19912;-75
2022/08/13 04:58:32;;;;;;;;;;;23.20;99.90;;;;;;5093824;28;19983;-76
2022/08/13 05:01:11;;;;;;;;;;;23.20;99.90;;;;;;5093247;28;19915;-75
2022/08/13 05:03:39;;;;;;;;;;;23.20;99.90;;;;;;5093055;28;19955;-75
2022/08/13 05:06:11;;;;;;;;;;;23.00;99.90;;;;;;5093210;28;19940;-75
2022/08/13 05:08:39;;;;;;;;;;;23.00;99.90;;;;;;5092859;28;20439;-75
2022/08/13 05:11:04;;;;;;;;;;;22.90;99.90;;;;;;5093104;28;19912;-76
2022/08/13 05:13:31;;;;;;;;;;;22.70;99.90;;;;;;5074808;28;20278;-76
2022/08/13 05:15:58;;;;;;;;;;;22.70;99.90;;;;;;5092366;28;19912;-75
2022/08/13 05:18:25;;;;;;;;;;;22.70;99.90;;;;;;5092550;28;19908;-76
2022/08/13 05:20:53;;;;;;;;;;;22.70;99.90;;;;;;5092690;28;19907;-75
2022/08/13 05:23:19;;;;;;;;;;;22.70;99.90;;;;;;5092555;28;19916;-75
2022/08/13 05:25:45;;;;;;;;;;;22.50;99.90;;;;;;5093900;28;19912;-75
2022/08/13 05:28:11;;;;;;;;;;;22.50;99.90;;;;;;5095222;28;19977;-75
2022/08/13 05:30:38;;;;;;;;;;;22.30;99.90;;;;;;5093534;28;20337;-76
2022/08/13 05:33:12;;;;;;;;;;;22.20;99.90;;;;;;5092680;28;19999;-75
2022/08/13 05:35:38;;;;;;;;;;;22.40;99.90;;;;;;5093265;28;20003;-75
2022/08/13 05:38:04;;;;;;;;;;;22.50;99.90;;;;;;5092611;28;20341;-74
2022/08/13 05:40:30;;;;;;;;;;;22.50;99.90;;;;;;5092791;28;19909;-76
2022/08/13 05:42:59;;;;;;;;;;;22.50;99.90;;;;;;5092435;28;19914;-76
2022/08/13 05:45:25;;;;;;;;;;;22.50;99.90;;;;;;5092157;28;20002;-75
2022/08/13 05:47:51;;;;;;;;;;;22.50;99.90;;;;;;5092938;28;19909;-75
2022/08/13 05:50:17;;;;;;;;;;;22.50;99.90;;;;;;5092179;28;19908;-75
2022/08/13 05:52:43;;;;;;;;;;;22.60;99.90;;;;;;5092499;28;19915;-76
2022/08/13 05:55:13;;;;;;;;;;;22.50;99.90;;;;;;5091780;28;19912;-74
2022/08/13 05:57:39;;;;;;;;;;;22.60;99.90;;;;;;5092121;28;19908;-76
2022/08/13 06:05:34;;;;;;;;;;;22.80;99.90;;;;;;5092262;28;19954;-75
2022/08/13 06:08:00;;;;;;;;;;;22.80;99.90;;;;;;5092207;28;20292;-76
2022/08/13 06:10:26;;;;;;;;;;;22.70;99.90;;;;;;5091796;28;19908;-76
2022/08/13 06:12:52;;;;;;;;;;;22.60;99.90;;;;;;5092204;28;20456;-76
2022/08/13 06:15:21;;;;;;;;;;;22.50;99.90;;;;;;5091661;28;20011;-76
2022/08/13 06:17:47;;;;;;;;;;;22.10;99.90;;;;;;5092476;28;19912;-76
2022/08/13 06:20:13;;;;;;;;;;;22.10;99.90;;;;;;5093425;28;19998;-76
2022/08/13 06:22:40;;;;;;;;;;;22.30;99.90;;;;;;5093264;28;20331;-76
2022/08/13 06:25:06;;;;;;;;;;;22.40;99.90;;;;;;5093499;28;19912;-75
2022/08/13 06:27:32;;;;;;;;;;;22.40;99.90;;;;;;5091856;28;19915;-75
2022/08/13 06:29:58;;;;;;;;;;;22.30;99.90;;;;;;5092752;28;19908;-75
2022/08/13 06:32:23;;;;;;;;;;;22.30;99.90;;;;;;5104952;28;19918;-74
2022/08/13 06:34:50;;;;;;;;;;;22.20;99.90;;;;;;5102152;28;19908;-74
2022/08/13 06:37:16;;;;;;;;;;;22.00;99.90;;;;;;5102283;28;19915;-75
2022/08/13 06:39:43;;;;;;;;;;;21.90;99.90;;;;;;5106060;28;19971;-75
2022/08/13 06:42:09;;;;;;;;;;;21.90;99.90;;;;;;5101855;28;20339;-75
2022/08/13 06:44:35;;;;;;;;;;;21.70;99.90;;;;;;5101032;28;19923;-75
2022/08/13 06:47:03;;;;;;;;;;;21.50;99.90;;;;;;5092130;28;19915;-75
2022/08/13 06:49:32;;;;;;;;;;;21.50;99.90;;;;;;5074074;28;19908;-74
2022/08/13 06:51:58;;;;;;;;;;;21.50;99.90;;;;;;5091966;28;20011;-75
2022/08/13 06:54:24;;;;;;;;;;;21.30;99.90;;;;;;5091367;28;20326;-75
2022/08/13 06:56:52;;;;;;;;;;;21.30;99.90;;;;;;5091885;28;19923;-75
2022/08/13 06:59:19;;;;;;;;;;;21.30;99.90;;;;;;5091824;28;19908;-75
2022/08/13 07:01:46;;;;;;;;;;;21.40;99.90;;;;;;5092235;28;19919;-75
2022/08/13 07:04:16;;;;;;;;;;;21.60;99.90;;;;;;5092667;28;19952;-76
2022/08/13 07:06:44;;;;;;;;;;;21.50;99.90;;;;;;5093060;28;19928;-75
2022/08/13 07:09:09;;;;;;;;;;;21.40;99.90;;;;;;5096491;28;19908;-75
2022/08/13 07:11:35;;;;;;;;;;;21.40;99.90;;;;;;5095403;28;19961;-76
2022/08/13 07:14:02;;;;;;;;;;;21.40;99.90;;;;;;5095865;28;19909;-74
2022/08/13 07:16:33;;;;;;;;;;;21.60;99.90;;;;;;5095815;28;19912;-75
2022/08/13 07:18:59;;;;;;;;;;;21.70;99.90;;;;;;5095724;28;19912;-76
2022/08/13 07:21:26;;;;;;;;;;;21.90;99.90;;;;;;5094984;28;20381;-76
2022/08/13 07:23:53;;;;;;;;;;;22.10;99.90;;;;;;5095329;28;19912;-76
2022/08/13 07:26:19;;;;;;;;;;;22.40;99.90;;;;;;5095407;28;20282;-76
2022/08/13 07:28:46;;;;;;;;;;;22.60;99.90;;;;;;5094983;28;20316;-76
2022/08/13 07:31:13;;;;;;;;;;;22.60;99.90;;;;;;5095477;28;19934;-76
2022/08/13 07:33:42;;;;;;;;;;;22.70;99.90;;;;;;5095032;28;20016;-75
2022/08/13 07:36:10;;;;;;;;;;;22.80;99.90;;;;;;5094975;28;19922;-75
2022/08/13 07:38:36;;;;;;;;;;;22.70;99.90;;;;;;5095112;28;19998;-75
2022/08/13 07:41:02;;;;;;;;;;;22.60;99.90;;;;;;5096533;28;19950;-76
2022/08/13 07:43:36;;;;;;;;;;;22.70;99.90;;;;;;5110395;28;19908;-75
2022/08/13 07:46:07;;;;;;;;;;;22.80;99.90;;;;;;5104116;28;19974;-75
2022/08/13 07:51:37;;;;;;;;;;;22.80;99.90;;;;;;5096879;28;19998;-76
2022/08/13 07:54:05;;;;;;;;;;;23.10;99.90;;;;;;5107720;28;19915;-76
2022/08/13 07:56:32;;;;;;;;;;;23.30;99.90;;;;;;5110534;28;19912;-75
2022/08/13 07:59:00;;;;;;;;;;;23.40;99.90;;;;;;5094989;28;19908;-75
2022/08/13 08:01:29;;;;;;;;;;;23.40;99.90;;;;;;5111702;28;19980;-76
2022/08/13 08:03:56;;;;;;;;;;;23.20;99.90;;;;;;5094832;28;19923;-76
2022/08/13 08:06:22;;;;;;;;;;;23.30;99.90;;;;;;5111181;28;19992;-75
2022/08/13 08:08:53;;;;;;;;;;;23.40;99.90;;;;;;5112755;28;19908;-76
2022/08/13 08:14:04;;;;;;;;;;;23.30;99.90;;;;;;5104542;28;19976;-74
2022/08/13 08:16:31;;;;;;;;;;;23.00;99.90;;;;;;5103062;28;19943;-74
2022/08/13 08:18:59;;;;;;;;;;;23.00;99.90;;;;;;5103609;28;19918;-75
2022/08/13 08:21:26;;;;;;;;;;;22.70;99.90;;;;;;5103732;28;19986;-75
2022/08/13 08:24:04;;;;;;;;;;;22.40;99.90;;;;;;5106747;28;19912;-76
2022/08/13 08:26:31;;;;;;;;;;;22.20;99.90;;;;;;5106997;28;19946;-75
2022/08/13 08:28:59;;;;;;;;;;;22.10;99.90;;;;;;5106058;28;20318;-75
2022/08/13 08:31:26;;;;;;;;;;;22.00;99.90;;;;;;5106306;28;19956;-76
2022/08/13 08:33:54;;;;;;;;;;;22.10;99.90;;;;;;5084875;28;19959;-75
2022/08/13 08:36:20;;;;;;;;;;;22.20;99.90;;;;;;5075594;28;19912;-76
2022/08/13 08:44:20;;;;;;;;;;;22.20;99.90;;;;;;5094523;28;19915;-76
2022/08/13 08:46:47;;;;;;;;;;;22.20;99.90;;;;;;5094086;28;20285;-76
2022/08/13 08:49:13;;;;;;;;;;;21.90;99.90;;;;;;5075683;28;19983;-77
2022/08/13 08:51:40;;;;;;;;;;;22.10;99.90;;;;;;5093909;28;20006;-75
2022/08/13 08:54:06;;;;;;;;;;;21.90;99.90;;;;;;5093585;28;20332;-76
2022/08/13 08:56:34;;;;;;;;;;;21.80;99.90;;;;;;5093510;28;19912;-75
2022/08/13 08:59:01;;;;;;;;;;;21.70;99.90;;;;;;5093466;28;19908;-75
2022/08/13 09:01:27;;;;;;;;;;;22.00;99.90;;;;;;5093454;28;19977;-76
2022/08/13 09:03:54;;;;;;;;;;;22.10;99.90;;;;;;5093761;28;19908;-76
2022/08/13 09:06:21;;;;;;;;;;;22.20;99.90;;;;;;5075776;28;19908;-76
2022/08/13 09:08:47;;;;;;;;;;;22.10;99.90;;;;;;5094157;28;19908;-75
2022/08/13 09:11:18;;;;;;;;;;;22.20;99.90;;;;;;5094332;28;19915;-75
2022/08/13 09:13:49;;;;;;;;;;;22.20;99.90;;;;;;5094227;28;20296;-76
2022/08/13 09:16:17;;;;;;;;;;;22.20;99.90;;;;;;5094529;28;19923;-76
2022/08/13 09:18:44;;;;;;;;;;;22.10;99.90;;;;;;5093366;28;20277;-75
2022/08/13 09:21:09;;;;;;;;;;;22.10;99.90;;;;;;5093359;28;20385;-76
2022/08/13 09:23:35;;;;;;;;;;;22.10;99.90;;;;;;5092914;28;19916;-75
2022/08/13 09:26:02;;;;;;;;;;;22.30;99.90;;;;;;5092725;28;19912;-75
2022/08/13 09:28:28;;;;;;;;;;;21.90;99.90;;;;;;5093038;28;19908;-75
2022/08/13 09:33:57;;;;;;;;;;;21.60;99.90;;;;;;5092792;28;19915;-76
2022/08/13 09:36:24;;;;;;;;;;;21.80;99.90;;;;;;5092440;28;19916;-75
2022/08/13 09:38:50;;;;;;;;;;;21.90;99.90;;;;;;5093025;28;19914;-75
2022/08/13 09:41:35;;;;;;;;;;;22.30;99.90;;;;;;5092693;28;19908;-75
2022/08/13 09:44:01;;;;;;;;;;;22.50;99.90;;;;;;5092667;28;19909;-74
2022/08/13 09:46:27;;;;;;;;;;;22.40;99.90;;;;;;5074085;28;19908;-75
2022/08/13 09:48:55;;;;;;;;;;;22.10;99.90;;;;;;5092358;28;19908;-76
2022/08/13 09:51:21;;;;;;;;;;;22.30;99.90;;;;;;5092032;28;19908;-74
2022/08/13 09:53:47;;;;;;;;;;;22.70;99.90;;;;;;5073983;28;19998;-74
2022/08/13 09:56:17;;;;;;;;;;;22.80;99.90;;;;;;5092160;28;19912;-76
2022/08/13 09:58:50;;;;;;;;;;;22.80;99.90;;;;;;5093069;28;20254;-77
2022/08/13 10:01:19;;;;;;;;;;;22.90;99.90;;;;;;5092528;28;19915;-76
2022/08/13 10:03:45;;;;;;;;;;;23.10;99.90;;;;;;5092153;28;19918;-75
2022/08/13 10:06:11;;;;;;;;;;;23.30;99.90;;;;;;5092786;28;19908;-75
2022/08/13 10:08:37;;;;;;;;;;;23.40;99.90;;;;;;5092479;28;19919;-75
2022/08/13 10:11:02;;;;;;;;;;;23.70;99.90;;;;;;5092021;28;19908;-75
2022/08/13 10:13:28;;;;;;;;;;;23.80;99.90;;;;;;5091998;28;19978;-75
2022/08/13 10:15:54;;;;;;;;;;;23.80;99.90;;;;;;5092378;28;20006;-75
2022/08/13 10:18:20;;;;;;;;;;;23.80;99.90;;;;;;5092275;28;19908;-75
2022/08/13 10:20:48;;;;;;;;;;;23.50;99.90;;;;;;5092064;28;19957;-75
2022/08/13 10:23:15;;;;;;;;;;;23.30;99.90;;;;;;5092113;28;19916;-75
2022/08/13 10:25:42;;;;;;;;;;;23.40;99.90;;;;;;5091635;28;19915;-75
2022/08/13 10:28:17;;;;;;;;;;;23.50;99.90;;;;;;5091631;28;19913;-75
2022/08/13 10:30:43;;;;;;;;;;;23.80;99.90;;;;;;5092781;28;19915;-76
2022/08/13 10:33:11;;;;;;;;;;;24.10;99.90;;;;;;5091988;28;19919;-76
2022/08/13 10:35:37;;;;;;;;;;;24.20;99.90;;;;;;5091789;28;19916;-78
2022/08/13 10:38:05;;;;;;;;;;;24.40;99.90;;;;;;5092032;28;20365;-75
2022/08/13 10:40:30;;;;;;;;;;;24.50;99.90;;;;;;5092950;28;19909;-75
2022/08/13 10:42:56;;;;;;;;;;;24.80;99.90;;;;;;5072248;28;19915;-76
2022/08/13 10:45:26;;;;;;;;;;;24.90;99.90;;;;;;5092879;28;19920;-76
2022/08/13 10:47:54;;;;;;;;;;;24.80;99.90;;;;;;5095567;28;19908;-76
2022/08/13 10:50:21;;;;;;;;;;;24.40;99.90;;;;;;5097949;28;19935;-75
2022/08/13 10:52:47;;;;;;;;;;;24.50;99.90;;;;;;5093731;28;19931;-75
2022/08/13 10:55:13;;;;;;;;;;;24.40;99.90;;;;;;5091609;28;19912;-75
2022/08/13 10:57:40;;;;;;;;;;;24.30;99.90;;;;;;5091383;28;20416;-76
2022/08/13 11:00:07;;;;;;;;;;;24.30;99.90;;;;;;5092109;28;20314;-76
2022/08/13 11:02:32;;;;;;;;;;;24.50;99.90;;;;;;5095186;28;19908;-76
2022/08/13 11:05:00;;;;;;;;;;;24.70;99.90;;;;;;5097620;28;20313;-76
2022/08/13 11:07:26;;;;;;;;;;;24.80;99.90;;;;;;5095450;28;19916;-76
2022/08/13 11:09:51;;;;;;;;;;;25.10;99.90;;;;;;5094515;28;20091;-76
2022/08/13 11:12:18;;;;;;;;;;;25.10;99.90;;;;;;5097847;28;19908;-76
2022/08/13 11:14:45;;;;;;;;;;;24.90;99.90;;;;;;5079700;28;19912;-76
2022/08/13 11:17:11;;;;;;;;;;;25.00;99.90;;;;;;5075987;28;19927;-76
2022/08/13 11:19:40;;;;;;;;;;;25.00;99.90;;;;;;5097978;28;19908;-75
2022/08/13 11:22:06;;;;;;;;;;;24.80;99.90;;;;;;5099005;28;20030;-76
2022/08/13 11:24:31;;;;;;;;;;;24.60;99.90;;;;;;5103350;28;19909;-76
2022/08/13 11:26:57;;;;;;;;;;;24.80;99.90;;;;;;5102773;28;19908;-76
2022/08/13 11:29:23;;;;;;;;;;;25.00;99.90;;;;;;5085921;28;19912;-76
2022/08/13 11:31:48;;;;;;;;;;;25.10;99.90;;;;;;5104169;28;19908;-76
2022/08/13 11:34:14;;;;;;;;;;;25.20;99.90;;;;;;5094638;28;20003;-77
2022/08/13 11:36:40;;;;;;;;;;;25.10;99.90;;;;;;5092223;28;20369;-76
2022/08/13 11:39:07;;;;;;;;;;;25.20;99.90;;;;;;5092088;28;19908;-75
2022/08/13 11:41:32;;;;;;;;;;;24.90;99.90;;;;;;5091852;28;20357;-77
2022/08/13 11:43:58;;;;;;;;;;;24.90;99.90;;;;;;5091624;28;19919;-77
2022/08/13 11:46:24;;;;;;;;;;;25.20;99.90;;;;;;5091050;28;19908;-76
2022/08/13 11:48:50;;;;;;;;;;;25.50;99.90;;;;;;5095203;28;19908;-76
2022/08/13 11:51:15;;;;;;;;;;;25.60;99.90;;;;;;5096027;28;20011;-75
2022/08/13 11:53:41;;;;;;;;;;;25.40;99.90;;;;;;5093827;28;19909;-77
2022/08/13 11:56:07;;;;;;;;;;;25.00;99.90;;;;;;5096617;28;20010;-77
2022/08/13 11:58:36;;;;;;;;;;;25.00;99.90;;;;;;5096149;28;19908;-76
2022/08/13 12:01:06;;;;;;;;;;;24.70;99.90;;;;;;5096905;28;20403;-77
2022/08/13 12:03:36;;;;;;;;;;;24.80;99.90;;;;;;5100052;28;19908;-76
2022/08/13 12:06:03;;;;;;;;;;;25.20;99.90;;;;;;5099028;28;19912;-74
2022/08/13 12:08:30;;;;;;;;;;;24.70;99.90;;;;;;5101181;28;19908;-78
2022/08/13 12:10:56;;;;;;;;;;;24.90;99.90;;;;;;5100808;28;20485;-76
2022/08/13 12:13:21;;;;;;;;;;;25.00;99.90;;;;;;5098996;28;19992;-77
2022/08/13 12:15:47;;;;;;;;;;;25.00;99.90;;;;;;5099920;28;19921;-76
2022/08/13 12:18:13;;;;;;;;;;;25.10;99.90;;;;;;5103390;28;19935;-78
2022/08/13 12:20:39;;;;;;;;;;;25.30;99.90;;;;;;5084052;28;19914;-76
2022/08/13 12:23:07;;;;;;;;;;;25.00;99.90;;;;;;5100936;28;19959;-76
2022/08/13 12:25:32;;;;;;;;;;;25.30;99.90;;;;;;5100473;28;20281;-76
2022/08/13 12:28:11;;;;;;;;;;;25.60;99.90;;;;;;5082617;28;19908;-76
2022/08/13 12:30:38;;;;;;;;;;;25.60;99.90;;;;;;5083354;28;19970;-75
2022/08/13 12:33:03;;;;;;;;;;;25.70;99.90;;;;;;5101025;28;19908;-76
2022/08/13 12:35:29;;;;;;;;;;;25.80;99.90;;;;;;5102054;28;19919;-77
2022/08/13 12:37:55;;;;;;;;;;;25.90;99.90;;;;;;5101596;28;19912;-76
2022/08/13 12:40:20;;;;;;;;;;;25.60;99.90;;;;;;5082549;28;19915;-76
2022/08/13 12:42:46;;;;;;;;;;;25.40;99.90;;;;;;5098991;28;19999;-76
2022/08/13 12:45:13;;;;;;;;;;;25.50;99.90;;;;;;5100455;28;19934;-76
2022/08/13 12:47:40;;;;;;;;;;;25.60;99.90;;;;;;5098316;28;20365;-75
2022/08/13 12:50:06;;;;;;;;;;;25.60;99.90;;;;;;5101844;28;19912;-76
2022/08/13 12:52:31;;;;;;;;;;;25.60;99.90;;;;;;5098231;28;19915;-76
2022/08/13 12:54:57;;;;;;;;;;;25.40;99.90;;;;;;5097256;28;19908;-79
2022/08/13 12:57:23;;;;;;;;;;;25.40;99.90;;;;;;5098749;28;20011;-75
2022/08/13 12:59:48;;;;;;;;;;;25.30;99.90;;;;;;5098658;28;19912;-75
2022/08/13 13:02:14;;;;;;;;;;;25.20;99.90;;;;;;5096824;28;19971;-78
2022/08/13 13:04:43;;;;;;;;;;;25.30;99.90;;;;;;5099826;28;19927;-77
2022/08/13 13:07:09;;;;;;;;;;;25.40;99.90;;;;;;5098405;28;19995;-76
2022/08/13 13:09:35;;;;;;;;;;;25.50;99.90;;;;;;5076259;28;19954;-77
2022/08/13 13:12:00;;;;;;;;;;;24.90;99.90;;;;;;5082598;28;19928;-76
2022/08/13 13:14:26;;;;;;;;;;;24.70;99.90;;;;;;5099459;28;19912;-76
2022/08/13 13:16:52;;;;;;;;;;;25.00;99.90;;;;;;5098922;28;19937;-76
2022/08/13 13:19:17;;;;;;;;;;;25.10;99.90;;;;;;5099365;28;19909;-76
2022/08/13 13:21:46;;;;;;;;;;;25.10;99.90;;;;;;5098092;28;19995;-75
2022/08/13 13:24:13;;;;;;;;;;;25.00;99.90;;;;;;5081444;28;19908;-76
2022/08/13 13:26:39;;;;;;;;;;;25.00;99.90;;;;;;5080029;28;20313;-76
2022/08/13 13:29:05;;;;;;;;;;;25.40;99.90;;;;;;5080884;28;19923;-76
2022/08/13 13:31:30;;;;;;;;;;;25.60;99.90;;;;;;5079119;28;20266;-73
2022/08/13 13:33:56;;;;;;;;;;;25.30;99.90;;;;;;5094014;28;19955;-71
2022/08/13 13:36:22;;;;;;;;;;;25.20;99.90;;;;;;5093485;28;19923;-72
2022/08/13 13:38:47;;;;;;;;;;;25.30;99.90;;;;;;5093030;28;19974;-71
2022/08/13 13:41:13;;;;;;;;;;;25.30;99.90;;;;;;5092961;28;19995;-72
2022/08/13 13:43:39;;;;;;;;;;;25.50;99.90;;;;;;5093004;28;20269;-71
2022/08/13 13:46:07;;;;;;;;;;;25.40;99.90;;;;;;5087122;28;19923;-72
2022/08/13 13:48:40;;;;;;;;;;;25.30;99.90;;;;;;5096244;28;19919;-72
2022/08/13 13:51:07;;;;;;;;;;;24.90;99.90;;;;;;5112926;28;20273;-72
2022/08/13 13:53:33;;;;;;;;;;;24.80;99.90;;;;;;5113644;28;19950;-71
2022/08/13 13:56:00;;;;;;;;;;;25.00;99.90;;;;;;5108722;28;20348;-72
2022/08/13 13:58:25;;;;;;;;;;;25.00;99.90;;;;;;5092323;28;19912;-72
2022/08/13 14:00:52;;;;;;;;;;;25.30;99.90;;;;;;5113161;28;19915;-71
2022/08/13 14:03:17;;;;;;;;;;;25.60;99.90;;;;;;5113539;28;19915;-72
2022/08/13 14:05:43;;;;;;;;;;;25.70;99.90;;;;;;5109556;28;19908;-71
2022/08/13 14:08:10;;;;;;;;;;;25.90;99.90;;;;;;5094025;28;19950;-72
2022/08/13 14:10:36;;;;;;;;;;;26.10;99.90;;;;;;5107533;28;19918;-73
2022/08/13 14:13:02;;;;;;;;;;;26.20;99.90;;;;;;5119920;28;19946;-73
2022/08/13 14:15:35;;;;;;;;;;;26.20;99.90;;;;;;5123732;28;19911;-71
2022/08/13 14:18:02;;;;;;;;;;;26.10;99.90;;;;;;5112314;28;19912;-73
2022/08/13 14:20:28;;;;;;;;;;;25.70;99.90;;;;;;5121679;28;19919;-72
2022/08/13 14:22:54;;;;;;;;;;;25.60;99.90;;;;;;5105740;28;19999;-72
2022/08/13 14:25:20;;;;;;;;;;;25.70;99.90;;;;;;5123128;28;19969;-71
2022/08/13 14:27:46;;;;;;;;;;;25.70;99.90;;;;;;5119571;28;19952;-72
2022/08/13 14:30:12;;;;;;;;;;;25.40;99.90;;;;;;5124322;28;19992;-72
2022/08/13 14:32:38;;;;;;;;;;;25.50;99.90;;;;;;5125089;28;19907;-71
2022/08/13 14:35:14;;;;;;;;;;;25.50;99.90;;;;;;5125290;28;19908;-71
2022/08/13 14:37:41;;;;;;;;;;;25.30;99.90;;;;;;5106410;28;19912;-73
2022/08/13 14:40:11;;;;;;;;;;;25.30;99.90;;;;;;5112385;28;19907;-73
2022/08/13 14:42:45;;;;;;;;;;;25.60;99.90;;;;;;5112230;28;19908;-72
2022/08/13 14:47:56;;;;;;;;;;;25.30;99.90;;;;;;5099945;28;20330;-74